createdAt,value
2023-02-09T07:57:50.121Z,100.00
2023-02-09T08:00:19.468Z,100.00
2023-02-09T08:02:48.914Z,100.00
2023-02-09T08:05:48.494Z,100.00
2023-02-09T08:08:15.965Z,100.00
2023-02-09T08:10:43.874Z,100.00
2023-02-09T08:13:12.335Z,100.00
2023-02-09T08:15:55.547Z,100.00
2023-02-09T08:18:36.021Z,100.00
2023-02-09T08:21:08.006Z,100.00
2023-02-09T08:23:37.582Z,100.00
2023-02-09T08:26:13.339Z,100.00
2023-02-09T08:28:44.951Z,100.00
2023-02-09T08:31:19.672Z,100.00
2023-02-09T08:33:50.447Z,100.00
2023-02-09T08:36:20.724Z,100.00
2023-02-09T08:38:48.346Z,100.00
2023-02-09T08:41:18.337Z,100.00
2023-02-09T08:43:52.305Z,100.00
2023-02-09T08:46:20.102Z,100.00
2023-02-09T08:48:47.850Z,100.00
2023-02-09T08:51:17.670Z,100.00
2023-02-09T08:53:52.275Z,100.00
2023-02-09T08:56:22.639Z,100.00
2023-02-09T08:58:50.858Z,100.00
2023-02-09T09:01:18.850Z,100.00
2023-02-09T09:03:46.441Z,100.00
2023-02-09T09:06:13.955Z,100.00
2023-02-09T09:08:41.375Z,100.00
2023-02-09T09:11:13.016Z,100.00
2023-02-09T09:13:41.856Z,100.00
2023-02-09T09:16:20.143Z,100.00
2023-02-09T09:18:48.340Z,100.00
2023-02-09T09:21:18.996Z,100.00
2023-02-09T09:23:47.577Z,98.39
2023-02-09T09:26:17.272Z,97.74
2023-02-09T09:28:48.802Z,94.92
2023-02-09T09:31:18.656Z,92.37
2023-02-09T09:33:46.845Z,91.33
2023-02-09T09:36:17.316Z,89.26
2023-02-09T09:38:44.749Z,87.79
2023-02-09T09:41:38.006Z,88.13
2023-02-09T09:44:35.302Z,88.00
2023-02-09T09:47:18.243Z,86.05
2023-02-09T09:49:46.170Z,84.82
2023-02-09T09:52:40.226Z,83.39
2023-02-09T09:55:20.863Z,81.54
2023-02-09T09:57:48.568Z,80.49
2023-02-09T10:00:37.696Z,78.98
2023-02-09T10:03:22.775Z,77.73
2023-02-09T10:06:12.216Z,77.12
2023-02-09T10:09:06.991Z,75.29
2023-02-09T10:11:54.964Z,74.27
2023-02-09T10:14:23.710Z,73.16
2023-02-09T10:16:51.187Z,72.84
2023-02-09T10:19:29.171Z,71.82
2023-02-09T10:21:57.114Z,71.18
2023-02-09T10:24:34.328Z,69.76
2023-02-09T10:27:08.256Z,68.58
2023-02-09T10:29:36.382Z,68.16
2023-02-09T10:32:40.737Z,66.73
2023-02-09T10:35:41.569Z,66.05
2023-02-09T10:38:23.145Z,64.99
2023-02-09T10:40:51.030Z,64.61
2023-02-09T10:43:34.667Z,63.70
2023-02-09T10:46:16.452Z,62.70
2023-02-09T10:48:47.267Z,62.31
2023-02-09T10:51:31.350Z,61.72
2023-02-09T10:54:08.148Z,61.03
2023-02-09T10:56:48.961Z,60.40
2023-02-09T10:59:25.445Z,59.67
2023-02-09T11:02:02.055Z,59.47
2023-02-09T11:04:41.393Z,58.50
2023-02-09T11:07:20.422Z,58.81
2023-02-09T11:09:51.768Z,57.87
2023-02-09T11:12:22.964Z,56.63
2023-02-09T11:14:50.480Z,56.52
2023-02-09T11:17:40.072Z,55.91
2023-02-09T11:20:35.799Z,55.99
2023-02-09T11:23:47.218Z,54.11
2023-02-09T11:26:55.069Z,53.86
2023-02-09T11:29:50.022Z,52.96
2023-02-09T11:32:44.112Z,53.04
2023-02-09T11:35:19.965Z,52.60
2023-02-09T11:38:10.833Z,51.72
2023-02-09T11:40:52.610Z,52.10
2023-02-09T11:43:41.123Z,51.36
2023-02-09T11:46:22.193Z,51.15
2023-02-09T11:49:16.319Z,50.13
2023-02-09T11:51:46.112Z,50.91
2023-02-09T11:54:23.042Z,49.92
2023-02-09T11:57:01.121Z,49.23
2023-02-09T11:59:56.396Z,47.92
2023-02-09T12:02:53.509Z,48.04
2023-02-09T12:05:22.717Z,46.59
2023-02-09T12:08:55.953Z,47.05
2023-02-09T12:12:16.145Z,46.32
2023-02-09T12:15:22.679Z,45.65
2023-02-09T12:18:12.821Z,46.57
2023-02-09T12:20:57.851Z,46.32
2023-02-09T12:23:39.317Z,46.50
2023-02-09T12:26:15.264Z,45.64
2023-02-09T12:28:52.213Z,45.41
2023-02-09T12:31:28.125Z,45.60
2023-02-09T12:33:58.436Z,45.63
2023-02-09T12:36:35.384Z,44.01
2023-02-09T12:39:25.798Z,44.75
2023-02-09T12:41:56.087Z,45.34
2023-02-09T12:44:23.127Z,44.85
2023-02-09T12:46:56.809Z,45.60
2023-02-09T12:49:33.296Z,44.06
2023-02-09T12:52:03.516Z,43.78
2023-02-09T12:54:57.967Z,43.15
2023-02-09T12:57:26.090Z,43.56
2023-02-09T12:59:53.215Z,42.58
2023-02-09T13:02:50.599Z,42.23
2023-02-09T13:05:44.874Z,42.54
2023-02-09T13:08:22.594Z,42.56
2023-02-09T13:11:53.137Z,44.19
2023-02-09T13:14:22.375Z,44.59
2023-02-09T13:17:08.492Z,43.57
2023-02-09T13:21:04.512Z,44.10
2023-02-09T13:24:19.293Z,44.40
2023-02-09T13:26:57.946Z,44.43
2023-02-09T13:29:33.482Z,44.12
2023-02-09T13:32:16.347Z,44.99
2023-02-09T13:35:27.204Z,45.61
2023-02-09T13:38:03.268Z,44.81
2023-02-09T13:40:34.839Z,45.39
2023-02-09T13:43:11.055Z,45.75
2023-02-09T13:45:51.804Z,46.22
2023-02-09T13:48:39.064Z,47.46
2023-02-09T13:51:20.309Z,47.31
2023-02-09T13:54:02.941Z,46.80
2023-02-09T13:56:34.672Z,47.50
2023-02-09T13:59:02.082Z,48.13
2023-02-09T14:01:36.355Z,48.37
2023-02-09T14:04:26.248Z,48.65
2023-02-09T14:07:10.532Z,49.02
2023-02-09T14:10:14.174Z,48.93
2023-02-09T14:13:10.024Z,49.30
2023-02-09T14:16:04.561Z,49.48
2023-02-09T14:18:52.101Z,49.74
2023-02-09T14:21:45.572Z,49.90
2023-02-09T14:24:23.815Z,50.07
2023-02-09T14:27:16.530Z,50.29
2023-02-09T14:29:49.134Z,50.81
2023-02-09T14:32:42.981Z,50.90
2023-02-09T14:35:26.028Z,50.53
2023-02-09T14:37:58.871Z,51.12
2023-02-09T14:40:30.827Z,51.26
2023-02-09T14:43:19.853Z,51.07
2023-02-09T14:45:59.847Z,51.22
2023-02-09T14:48:31.200Z,51.49
2023-02-09T14:51:13.168Z,51.10
2023-02-09T14:53:43.100Z,51.70
2023-02-09T14:56:31.727Z,51.74
2023-02-09T14:58:59.119Z,52.41
2023-02-09T15:01:26.603Z,52.43
2023-02-09T15:03:53.968Z,52.77
2023-02-09T15:06:21.533Z,52.18
2023-02-09T15:08:48.982Z,52.29
2023-02-09T15:11:42.677Z,52.35
2023-02-09T15:14:11.315Z,52.58
2023-02-09T15:16:38.778Z,52.65
2023-02-09T15:19:16.411Z,53.25
2023-02-09T15:21:43.709Z,53.43
2023-02-09T15:24:11.042Z,54.22
2023-02-09T15:26:38.748Z,53.52
2023-02-09T15:29:16.378Z,53.31
2023-02-09T15:31:43.835Z,53.31
2023-02-09T15:34:17.229Z,53.47
2023-02-09T15:37:00.116Z,53.62
2023-02-09T15:39:34.946Z,54.04
2023-02-09T15:42:21.484Z,53.84
2023-02-09T15:45:08.139Z,53.84
2023-02-09T15:47:52.777Z,54.10
2023-02-09T15:50:20.227Z,55.05
2023-02-09T15:52:47.909Z,54.60
2023-02-09T15:55:21.352Z,53.65
2023-02-09T15:57:52.583Z,53.45
2023-02-09T16:00:26.427Z,53.86
2023-02-09T16:02:58.690Z,54.08
2023-02-09T16:05:30.209Z,53.47
2023-02-09T16:07:59.115Z,53.66
2023-02-09T16:10:30.200Z,53.59
2023-02-09T16:12:58.554Z,53.50
2023-02-09T16:15:27.440Z,52.96
2023-02-09T16:17:54.830Z,53.65
2023-02-09T16:20:23.718Z,53.61
2023-02-09T16:22:57.442Z,53.62
2023-02-09T16:25:27.113Z,53.85
2023-02-09T16:27:56.647Z,54.04
2023-02-09T16:30:34.761Z,54.46
2023-02-09T16:33:02.066Z,54.60
2023-02-09T16:35:31.379Z,54.27
2023-02-09T16:37:59.296Z,54.48
2023-02-09T16:40:32.463Z,54.97
2023-02-09T16:43:01.857Z,55.15
2023-02-09T16:45:35.157Z,55.27
2023-02-09T16:48:02.924Z,55.75
2023-02-09T16:50:39.924Z,56.04
2023-02-09T16:53:36.361Z,56.06
2023-02-09T16:56:10.317Z,56.58
2023-02-09T16:58:39.613Z,56.49
2023-02-09T17:01:25.182Z,56.83
2023-02-09T17:03:56.850Z,57.19
2023-02-09T17:06:29.330Z,57.33
2023-02-09T17:08:56.731Z,57.46
2023-02-09T17:11:28.288Z,57.83
2023-02-09T17:13:55.818Z,57.86
2023-02-09T17:16:39.213Z,58.98
2023-02-09T17:19:15.830Z,60.09
2023-02-09T17:21:43.348Z,60.70
2023-02-09T17:24:17.259Z,61.24
2023-02-09T17:26:44.938Z,61.07
2023-02-09T17:29:12.351Z,62.10
2023-02-09T17:31:52.946Z,63.33
2023-02-09T17:34:26.965Z,63.36
2023-02-09T17:36:58.650Z,64.16
2023-02-09T17:39:26.050Z,65.21
2023-02-09T17:41:53.571Z,65.66
2023-02-09T17:44:44.612Z,65.76
2023-02-09T17:47:19.980Z,67.23
2023-02-09T17:49:47.724Z,68.13
2023-02-09T17:52:21.027Z,69.05
2023-02-09T17:54:49.400Z,69.06
2023-02-09T17:57:18.109Z,69.96
2023-02-09T17:59:46.820Z,70.17
2023-02-09T18:02:20.503Z,70.83
2023-02-09T18:04:47.831Z,71.87
2023-02-09T18:07:20.404Z,73.11
2023-02-09T18:09:47.970Z,73.46
2023-02-09T18:12:26.598Z,74.13
2023-02-09T18:14:54.885Z,73.38
2023-02-09T18:17:22.233Z,74.47
2023-02-09T18:19:49.660Z,73.36
2023-02-09T18:22:17.901Z,74.14
2023-02-09T18:24:45.712Z,75.03
2023-02-09T18:27:25.490Z,75.61
2023-02-09T18:29:53.080Z,75.50
2023-02-09T18:32:23.825Z,74.58
2023-02-09T18:34:51.135Z,75.57
2023-02-09T18:37:18.533Z,75.92
2023-02-09T18:39:46.713Z,77.14
2023-02-09T18:42:16.523Z,77.79
2023-02-09T18:44:43.959Z,77.19
2023-02-09T18:47:11.483Z,77.07
2023-02-09T18:49:39.309Z,75.11
2023-02-09T18:52:08.386Z,76.48
2023-02-09T18:54:36.150Z,76.88
2023-02-09T18:57:03.521Z,77.55
2023-02-09T18:59:32.430Z,75.99
2023-02-09T19:02:01.166Z,76.42
2023-02-09T19:04:28.845Z,76.79
2023-02-09T19:06:56.186Z,77.79
2023-02-09T19:09:23.519Z,77.49
2023-02-09T19:11:50.839Z,78.59
2023-02-09T19:14:36.713Z,79.24
2023-02-09T19:17:08.255Z,80.05
2023-02-09T19:19:35.761Z,80.08
2023-02-09T19:22:03.179Z,81.44
2023-02-09T19:24:30.641Z,80.92
2023-02-09T19:26:58.079Z,82.14
2023-02-09T19:29:25.768Z,83.91
2023-02-09T19:31:55.665Z,84.96
2023-02-09T19:34:23.775Z,86.04
2023-02-09T19:36:51.502Z,87.50
2023-02-09T19:39:19.310Z,86.47
2023-02-09T19:41:48.975Z,86.16
2023-02-09T19:44:16.451Z,86.35
2023-02-09T19:46:43.910Z,87.12
2023-02-09T19:49:11.378Z,86.70
2023-02-09T19:51:38.719Z,87.07
2023-02-09T19:54:06.091Z,89.11
2023-02-09T19:56:33.381Z,89.64
2023-02-09T19:59:01.253Z,88.20
2023-02-09T20:01:31.344Z,87.82
2023-02-09T20:03:58.983Z,89.21
2023-02-09T20:06:26.470Z,88.83
2023-02-09T20:08:53.755Z,87.49
2023-02-09T20:11:21.898Z,88.29
2023-02-09T20:13:54.470Z,90.29
2023-02-09T20:16:27.440Z,90.63
2023-02-09T20:18:55.112Z,90.43
2023-02-09T20:21:25.836Z,90.49
2023-02-09T20:23:57.734Z,91.16
2023-02-09T20:26:30.119Z,91.70
2023-02-09T20:28:58.614Z,90.01
2023-02-09T20:31:36.761Z,91.08
2023-02-09T20:34:09.296Z,92.11
2023-02-09T20:36:42.064Z,93.22
2023-02-09T20:39:15.872Z,92.49
2023-02-09T20:42:06.910Z,92.96
2023-02-09T20:44:53.955Z,93.54
2023-02-09T20:47:21.257Z,93.23
2023-02-09T20:49:48.746Z,92.86
2023-02-09T20:52:16.415Z,91.81
2023-02-09T20:54:43.725Z,91.59
2023-02-09T20:57:11.023Z,91.54
2023-02-09T20:59:46.823Z,92.24
2023-02-09T21:02:16.050Z,91.31
2023-02-09T21:04:43.545Z,90.94
2023-02-09T21:07:13.529Z,91.35
2023-02-09T21:09:40.837Z,91.14
2023-02-09T21:12:08.561Z,90.58
2023-02-09T21:14:43.909Z,91.22
2023-02-09T21:17:11.881Z,90.51
2023-02-09T21:19:40.643Z,90.73
2023-02-09T21:22:08.375Z,91.11
2023-02-09T21:24:38.959Z,91.09
2023-02-09T21:27:07.207Z,92.38
